Time;durP1;ratioP1;P1;durP2;ratioP2;P2;SDS_P1;SDS_P2;PMS_P1;PMS_P2;Temp;Humidity;BMP_temperature;BMP_pressure;BME280_temperature;BME280_humidity;BME280_pressure;Samples;Min_cycle;Max_cycle;Signal;HPM_P1;HPM_P2
2022/10/14 08:01:37;;;;;;;10.90;9.90;;;;;;;13.58;100.00;100979.41;5321779;27;20906;-75
2022/10/14 08:04:12;;;;;;;11.88;10.55;;;;;;;13.60;100.00;100980.75;5319068;28;20024;-75
2022/10/14 08:06:43;;;;;;;10.30;9.30;;;;;;;13.64;100.00;100981.78;5288185;28;20054;-80
2022/10/14 08:09:15;;;;;;;11.93;10.77;;;;;;;13.66;100.00;100982.28;5300362;28;20387;-79
2022/10/14 08:11:46;;;;;;;9.95;9.07;;;;;;;13.68;100.00;100984.78;5301630;28;20039;-79
2022/10/14 08:14:17;;;;;;;9.05;8.25;;;;;;;13.72;100.00;100983.03;5307063;28;20029;-79
2022/10/14 08:16:49;;;;;;;10.82;9.68;;;;;;;13.76;100.00;100983.25;5299009;28;20031;-79
2022/10/14 08:19:20;;;;;;;10.10;9.20;;;;;;;13.79;100.00;100977.88;5300922;28;20025;-79
2022/10/14 08:21:52;;;;;;;9.70;8.80;;;;;;;13.83;100.00;100976.13;5291637;28;20024;-83
2022/10/14 08:24:27;;;;;;;9.73;8.77;;;;;;;13.88;100.00;100967.66;5280944;28;20179;-83
2022/10/14 08:27:01;;;;;;;;;;;;;;;13.94;100.00;100965.59;5285567;28;20021;-80
2022/10/14 08:29:32;;;;;;;9.35;8.55;;;;;;;13.92;100.00;100965.09;5281381;28;20282;-84
2022/10/14 08:32:04;;;;;;;8.82;7.78;;;;;;;13.95;100.00;100975.59;5279531;28;20033;-78
2022/10/14 08:34:35;;;;;;;9.60;8.35;;;;;;;13.97;100.00;100967.75;5279375;28;20056;-77
2022/10/14 08:37:10;;;;;;;9.48;8.65;;;;;;;13.99;100.00;100975.84;5286197;28;20375;-78
2022/10/14 08:39:42;;;;;;;10.15;8.25;;;;;;;13.97;100.00;100967.75;5300342;28;20020;-78
2022/10/14 08:42:33;;;;;;;9.68;8.77;;;;;;;14.04;100.00;100972.94;5298695;28;20035;-78
2022/10/14 08:45:14;;;;;;;9.45;8.55;;;;;;;14.05;100.00;100969.81;5278346;28;20039;-77
2022/10/14 08:47:46;;;;;;;9.57;8.65;;;;;;;14.08;100.00;100969.19;5279201;28;20028;-77
2022/10/14 08:50:25;;;;;;;9.52;8.73;;;;;;;14.12;100.00;100970.25;5279401;28;20051;-77
2022/10/14 08:53:09;;;;;;;9.75;8.77;;;;;;;14.15;100.00;100963.22;5278762;28;20021;-79
2022/10/14 08:55:46;;;;;;;9.10;8.30;;;;;;;14.15;100.00;100971.59;5283787;28;20040;-79
2022/10/14 08:58:37;;;;;;;9.27;8.32;;;;;;;14.20;100.00;100965.09;5299816;28;20054;-76
2022/10/14 09:01:27;;;;;;;9.90;8.90;;;;;;;14.22;100.00;100966.41;5296317;28;20041;-79
2022/10/14 09:04:03;;;;;;;7.63;6.47;;;;;;;14.34;100.00;100963.09;5311676;28;20379;-79
2022/10/14 09:06:40;;;;;;;;;;;;;;;14.34;100.00;100965.88;5291930;28;20125;-81
2022/10/14 09:09:21;;;;;;;8.20;7.30;;;;;;;14.32;100.00;100963.41;5285545;28;20351;-80
2022/10/14 09:12:03;;;;;;;9.18;8.27;;;;;;;14.36;100.00;100958.84;5287619;28;20021;-79
2022/10/14 09:14:38;;;;;;;9.48;8.57;;;;;;;14.45;100.00;100955.34;5267727;28;20025;-80
2022/10/14 09:17:19;;;;;;;10.57;8.50;;;;;;;14.45;100.00;100961.75;5283952;28;20032;-80
2022/10/14 09:20:12;;;;;;;10.15;8.57;;;;;;;14.40;100.00;100955.44;5293857;28;20101;-80
2022/10/14 09:22:49;;;;;;;10.38;9.35;;;;;;;14.41;100.00;100952.31;5274468;28;20484;-78
2022/10/14 09:25:20;;;;;;;8.82;7.93;;;;;;;14.47;100.00;100953.03;5264680;28;20043;-79
2022/10/14 09:27:54;;;;;;;11.80;10.70;;;;;;;14.48;100.00;100944.38;5266135;28;20025;-83
2022/10/14 09:30:34;;;;;;;9.02;8.27;;;;;;;14.50;100.00;100946.84;5277672;28;20108;-83
2022/10/14 09:33:13;;;;;;;8.50;7.30;;;;;;;14.59;100.00;100944.97;5283005;28;20058;-83
2022/10/14 09:35:46;;;;;;;11.35;10.18;;;;;;;14.53;100.00;100940.66;5267774;28;20021;-79
2022/10/14 09:38:18;;;;;;;10.82;7.90;;;;;;;14.59;100.00;100949.75;5265324;28;20033;-81
2022/10/14 09:40:53;;;;;;;11.77;10.77;;;;;;;14.62;100.00;100941.56;5265234;28;20025;-81
2022/10/14 09:43:25;;;;;;;9.02;7.75;;;;;;;14.62;100.00;100932.34;5287372;28;20126;-81
2022/10/14 09:46:09;;;;;;;7.18;6.57;;;;;;;14.57;100.00;100928.56;5284499;28;20435;-77
2022/10/14 09:48:49;;;;;;;7.50;6.30;;;;;;;14.58;100.00;100934.97;5280972;28;20032;-77
2022/10/14 09:51:26;;;;;;;7.70;7.00;;;;;;;14.56;100.00;100932.47;5284145;28;20024;-78
2022/10/14 09:54:01;;;;;;;6.97;6.35;;;;;;;14.54;100.00;100943.13;5269555;28;20025;-77
2022/10/14 09:56:35;;;;;;;6.15;5.65;;;;;;;14.62;100.00;100933.19;5264841;28;20041;-80
2022/10/14 09:59:21;;;;;;;7.32;6.65;;;;;;;14.62;100.00;100932.34;5267375;28;20025;-82
2022/10/14 10:01:55;;;;;;;8.65;7.68;;;;;;;14.62;100.00;100924.81;5274414;28;20056;-78
2022/10/14 10:04:32;;;;;;;9.43;8.40;;;;;;;14.60;100.00;100927.13;5278209;28;20035;-75
2022/10/14 10:07:06;;;;;;;11.43;10.27;;;;;;;14.60;100.00;100924.31;5283084;28;20037;-75
2022/10/14 10:09:37;;;;;;;9.90;8.90;;;;;;;14.57;100.00;100922.13;5282233;28;20111;-76
2022/10/14 10:12:23;;;;;;;8.93;8.05;;;;;;;14.59;100.00;100919.03;5277840;28;20135;-70
2022/10/14 10:14:57;;;;;;;10.63;9.73;;;;;;;14.59;100.00;100925.44;5279135;28;20382;-75
2022/10/14 10:17:39;;;;;;;10.20;9.18;;;;;;;14.63;100.00;100920.91;5274303;28;20060;-78
2022/10/14 10:20:32;;;;;;;18.98;7.65;;;;;;;14.66;100.00;100917.47;5282696;28;20101;-79
2022/10/14 10:23:23;;;;;;;19.60;8.73;;;;;;;14.74;100.00;100913.91;5272154;28;20088;-79
2022/10/14 10:26:16;;;;;;;7.45;6.70;;;;;;;14.73;100.00;100911.47;5268474;28;20460;-74
2022/10/14 10:28:48;;;;;;;12.73;8.50;;;;;;;14.76;100.00;100906.06;5263885;28;20444;-79
2022/10/14 10:31:37;;;;;;;15.30;8.10;;;;;;;14.78;100.00;100909.38;5263495;28;20041;-77
2022/10/14 10:34:30;;;;;;;8.57;7.25;;;;;;;14.74;100.00;100899.97;5281781;28;20023;-77
2022/10/14 10:37:29;;;;;;;8.73;7.93;;;;;;;14.74;100.00;100901.94;5299221;28;20044;-78
2022/10/14 10:40:15;;;;;;;7.05;6.35;;;;;;;14.72;100.00;100895.84;5278587;28;20086;-78
2022/10/14 10:42:54;;;;;;;7.97;7.13;;;;;;;14.73;100.00;100901.13;5275643;28;20087;-78
2022/10/14 10:45:59;;;;;;;7.78;6.20;;;;;;;14.76;100.00;100892.09;5262047;28;20116;-71
2022/10/14 10:48:44;;;;;;;8.25;6.70;;;;;;;14.82;100.00;100891.97;5265925;28;20032;-79
2022/10/14 10:51:44;;;;;;;8.55;7.82;;;;;;;14.80;100.00;100892.28;5263216;28;20021;-79
2022/10/14 10:54:45;;;;;;;8.25;6.28;;;;;;;14.76;100.00;100894.88;5278048;28;20356;-81
2022/10/14 10:57:44;;;;;;;6.70;6.00;;;;;;;14.85;100.00;100883.78;5284292;28;20068;-77
2022/10/14 11:00:19;;;;;;;7.97;7.25;;;;;;;14.81;100.00;100885.56;5271115;28;20431;-78
2022/10/14 11:03:18;;;;;;;8.55;6.95;;;;;;;14.85;100.00;100883.78;5262993;28;20086;-77
2022/10/14 11:06:00;;;;;;;6.38;5.70;;;;;;;14.82;100.00;100886.38;5274345;28;20033;-76
2022/10/14 11:12:11;;;;;;;7.55;6.75;;;;;;;14.86;100.00;100871.47;5282379;28;20079;-76
2022/10/14 11:15:16;;;;;;;7.03;6.43;;;;;;;14.88;100.00;100876.72;5278445;28;20060;-76
2022/10/14 11:18:08;;;;;;;7.32;6.72;;;;;;;14.84;100.00;100864.56;5283525;28;20552;-78
2022/10/14 11:21:18;;;;;;;7.47;6.88;;;;;;;14.83;100.00;100868.47;5275477;28;20443;-75
2022/10/14 11:24:00;;;;;;;8.73;7.93;;;;;;;14.83;100.00;100862.91;5262799;28;20388;-76
2022/10/14 11:26:34;;;;;;;8.73;7.97;;;;;;;14.80;100.00;100872.72;5261475;28;20047;-77
2022/10/14 11:29:28;;;;;;;8.68;7.95;;;;;;;14.83;100.00;100868.47;5267749;28;20178;-78
2022/10/14 11:32:15;;;;;;;8.40;7.55;;;;;;;14.91;100.00;100862.16;5283223;28;20032;-75
2022/10/14 11:35:17;;;;;;;11.50;8.73;;;;;;;14.90;100.00;100854.91;5280496;28;20054;-78
2022/10/14 11:38:23;;;;;;;9.85;8.95;;;;;;;14.90;100.00;100855.72;5278516;28;20040;-78
2022/10/14 11:41:10;;;;;;;9.40;8.70;;;;;;;14.91;100.00;100853.78;5275219;28;20052;-79
2022/10/14 11:43:53;;;;;;;9.68;8.82;;;;;;;14.93;100.00;100843.94;5304414;28;20039;-78
2022/10/14 11:46:34;;;;;;;10.18;9.27;;;;;;;14.90;100.00;100838.97;5281368;28;20428;-79
2022/10/14 11:49:51;;;;;;;9.95;9.15;;;;;;;14.93;100.00;100831.91;5263396;28;20032;-78
2022/10/14 11:52:35;;;;;;;9.02;8.27;;;;;;;14.93;100.00;100826.34;5230470;28;20426;-78
2022/10/14 11:55:15;;;;;;;10.60;9.60;;;;;;;14.93;100.00;100829.97;5265371;28;20028;-79
2022/10/14 11:57:52;;;;;;;11.57;9.48;;;;;;;14.93;100.00;100815.16;5279753;28;20028;-74
2022/10/14 12:00:28;;;;;;;10.10;9.20;;;;;;;15.00;100.00;100816.34;5283313;28;20546;-74
2022/10/14 12:03:26;;;;;;;9.98;9.07;;;;;;;15.00;100.00;100815.53;5281925;28;20021;-76
2022/10/14 12:06:11;;;;;;;10.30;9.52;;;;;;;15.04;100.00;100822.16;5282843;28;20032;-78
2022/10/14 12:08:55;;;;;;;11.07;10.18;;;;;;;15.03;100.00;100809.31;5285900;28;20360;-77
2022/10/14 12:11:29;;;;;;;11.13;10.10;;;;;;;15.05;100.00;100809.81;5282721;28;20033;-75
2022/10/14 12:14:27;;;;;;;19.15;17.55;;;;;;;15.09;100.00;100802.47;5282535;28;20025;-76
2022/10/14 12:17:04;;;;;;;9.40;8.68;;;;;;;15.05;100.00;100807.03;5281942;28;20052;-77
2022/10/14 12:19:36;;;;;;;9.05;8.15;;;;;;;15.03;100.00;100803.72;5271121;28;20028;-78
2022/10/14 12:22:13;;;;;;;9.30;8.18;;;;;;;15.06;100.00;100799.47;5276048;28;20035;-77
2022/10/14 12:24:49;;;;;;;9.85;8.95;;;;;;;15.05;100.00;100798.66;5283359;28;20483;-77
2022/10/14 12:27:23;;;;;;;9.70;9.00;;;;;;;15.12;100.00;100787.03;5294173;28;20024;-73
2022/10/14 12:29:57;;;;;;;9.75;8.82;;;;;;;15.10;100.00;100780.94;5302757;28;20030;-73
2022/10/14 12:32:30;;;;;;;8.00;7.32;;;;;;;15.06;100.00;100775.19;5274228;28;20020;-74
2022/10/14 12:35:42;;;;;;;6.93;6.43;;;;;;;15.11;100.00;100766.66;5303887;28;20035;-72
2022/10/14 12:38:13;;;;;;;9.80;8.45;;;;;;;15.17;100.00;100773.72;5266648;28;20122;-74
2022/10/14 12:40:47;;;;;;;7.82;7.15;;;;;;;15.15;100.00;100766.81;5292471;28;20458;-72
2022/10/14 12:43:25;;;;;;;6.90;6.30;;;;;;;15.17;100.00;100776.53;5278545;28;20060;-74
2022/10/14 12:46:09;;;;;;;6.80;5.90;;;;;;;15.11;100.00;100763.00;5293146;28;20020;-73
2022/10/14 12:48:49;;;;;;;6.93;6.00;;;;;;;15.14;100.00;100770.78;5283668;28;20108;-73
2022/10/14 12:51:23;;;;;;;5.78;5.20;;;;;;;15.16;100.00;100779.63;5279335;28;20048;-73
2022/10/14 12:54:14;;;;;;;6.40;5.88;;;;;;;15.11;100.00;100766.66;5280919;28;20094;-72
2022/10/14 12:57:20;;;;;;;6.00;5.35;;;;;;;15.19;100.00;100768.66;5265909;28;20495;-75
2022/10/14 12:59:54;;;;;;;7.60;6.77;;;;;;;15.17;100.00;100768.16;5282689;28;20044;-75
2022/10/14 13:02:31;;;;;;;6.93;6.32;;;;;;;15.16;100.00;100763.72;5285806;28;20379;-74
2022/10/14 13:05:20;;;;;;;10.68;9.73;;;;;;;15.15;100.00;100764.84;5284297;28;20024;-75
2022/10/14 13:08:24;;;;;;;7.95;7.25;;;;;;;15.19;100.00;100767.84;5284074;28;20435;-82
2022/10/14 13:10:58;;;;;;;16.88;15.18;;;;;;;15.22;100.00;100762.41;5279024;28;20506;-85
2022/10/14 13:13:48;;;;;;;8.07;7.38;;;;;;;15.19;100.00;100768.66;5290327;28;20016;-80
2022/10/14 13:16:22;;;;;;;7.13;6.53;;;;;;;15.18;100.00;100755.81;5286334;28;20086;-80
2022/10/14 13:18:56;;;;;;;5.78;5.28;;;;;;;15.17;100.00;100765.34;5286017;28;20111;-81
2022/10/14 13:21:33;;;;;;;5.85;5.35;;;;;;;15.18;100.00;100761.41;5284958;28;20491;-75
2022/10/14 13:24:26;;;;;;;8.40;7.60;;;;;;;15.23;100.00;100763.22;5286534;28;20116;-79
2022/10/14 13:27:28;;;;;;;8.45;5.93;;;;;;;15.23;100.00;100758.47;5288000;28;20044;-78
2022/10/14 13:30:07;;;;;;;6.32;5.82;;;;;;;15.25;100.00;100758.16;5272508;28;20040;-79
2022/10/14 13:32:57;;;;;;;7.70;7.00;;;;;;;15.24;100.00;100759.31;5267845;28;20032;-79
2022/10/14 13:36:04;;;;;;;5.95;5.45;;;;;;;15.27;100.00;100753.06;5267070;28;20025;-79
2022/10/14 13:38:37;;;;;;;;;;;;;;;15.33;100.00;100750.94;5273909;28;20115;-79
2022/10/14 13:41:15;;;;;;;5.82;5.32;;;;;;;15.25;100.00;100751.75;5285123;28;19912;-78
2022/10/14 13:43:46;;;;;;;5.78;5.13;;;;;;;15.23;100.00;100747.28;5285576;28;20431;-78
2022/10/14 13:46:24;;;;;;;5.85;5.20;;;;;;;15.30;100.00;100746.00;5267620;28;20009;-78
2022/10/14 13:49:01;;;;;;;10.45;9.57;;;;;;;15.27;100.00;100741.91;5266589;28;20033;-81
2022/10/14 13:51:32;;;;;;;5.78;5.28;;;;;;;15.34;100.00;100730.22;5271926;28;20033;-77
2022/10/14 13:54:17;;;;;;;5.85;5.35;;;;;;;15.33;100.00;100735.00;5297052;28;20081;-75
2022/10/14 13:57:11;;;;;;;6.90;6.35;;;;;;;15.36;100.00;100728.75;5285180;28;20021;-75
2022/10/14 13:59:44;;;;;;;8.13;7.28;;;;;;;15.38;100.00;100732.06;5285483;28;20099;-82
2022/10/14 14:02:22;;;;;;;7.18;6.05;;;;;;;15.42;100.00;100721.06;5280891;28;20120;-76
2022/10/14 14:04:57;;;;;;;12.40;11.25;;;;;;;15.43;100.00;100722.69;5297501;28;20036;-79
2022/10/14 14:07:35;;;;;;;8.30;7.60;;;;;;;15.42;100.00;100721.88;5291437;28;20040;-82
2022/10/14 14:10:09;;;;;;;10.90;9.88;;;;;;;15.45;100.00;100720.41;5299296;28;20052;-80
2022/10/14 14:12:42;;;;;;;8.02;7.22;;;;;;;15.45;100.00;100726.00;5288384;28;20471;-79
2022/10/14 14:15:25;;;;;;;8.05;7.40;;;;;;;15.50;100.00;100728.63;5283535;28;20116;-78
2022/10/14 14:17:56;;;;;;;8.45;7.68;;;;;;;15.49;100.00;100720.56;5285678;28;20021;-84
2022/10/14 14:20:32;;;;;;;9.77;8.85;;;;;;;15.45;100.00;100726.00;5268476;28;20051;-83
2022/10/14 14:23:04;;;;;;;16.52;15.10;;;;;;;15.55;100.00;100722.91;5264292;28;20056;-75
2022/10/14 14:25:35;;;;;;;11.05;10.07;;;;;;;15.51;100.00;100727.47;5267101;28;20017;-75
2022/10/14 14:28:12;;;;;;;12.52;11.43;;;;;;;15.48;100.00;100713.34;5284276;28;20103;-76
2022/10/14 14:30:50;;;;;;;13.18;11.93;;;;;;;15.46;100.00;100710.88;5282360;28;20025;-75
2022/10/14 14:33:31;;;;;;;14.88;13.52;;;;;;;15.48;100.00;100716.97;5292723;28;20032;-74
2022/10/14 14:36:08;;;;;;;15.05;13.63;;;;;;;15.51;100.00;100718.28;5276377;28;20021;-75
2022/10/14 14:38:52;;;;;;;13.07;11.98;;;;;;;15.51;100.00;100710.72;5272215;28;20028;-76
2022/10/14 14:41:28;;;;;;;31.60;28.52;;;;;;;15.55;100.00;100708.09;5284132;28;20050;-78
2022/10/14 14:44:05;;;;;;;41.85;38.10;;;;;;;15.61;100.00;100704.81;5284612;28;20024;-79
2022/10/14 14:46:47;;;;;;;14.15;12.95;;;;;;;15.61;100.00;100702.00;5284149;28;20056;-78
2022/10/14 14:49:27;;;;;;;15.38;13.98;;;;;;;15.59;100.00;100698.72;5283642;28;20035;-79
2022/10/14 14:52:00;;;;;;;15.05;13.65;;;;;;;15.54;100.00;100693.28;5283445;28;20039;-80
2022/10/14 14:54:40;;;;;;;13.77;12.57;;;;;;;15.60;100.00;100685.59;5282373;28;20372;-77
2022/10/14 14:57:19;;;;;;;15.63;14.02;;;;;;;15.68;100.00;100690.34;5284005;28;20028;-78
2022/10/14 15:00:00;;;;;;;17.58;15.75;;;;;;;15.63;100.00;100693.31;5283645;28;20048;-78
2022/10/14 15:02:33;;;;;;;21.08;19.05;;;;;;;15.61;100.00;100690.00;5286141;28;20497;-77
2022/10/14 15:05:09;;;;;;;17.52;16.00;;;;;;;15.62;100.00;100695.28;5282262;28;20012;-78
2022/10/14 15:07:42;;;;;;;17.45;15.85;;;;;;;15.64;100.00;100689.34;5284615;28;20108;-78
2022/10/14 15:10:30;;;;;;;17.90;16.35;;;;;;;15.67;100.00;100688.69;5276576;28;20372;-73
2022/10/14 15:13:02;;;;;;;20.88;18.88;;;;;;;15.68;100.00;100695.13;5284377;28;20013;-76
2022/10/14 15:15:38;;;;;;;21.02;18.88;;;;;;;15.68;100.00;100693.16;5283061;28;20110;-75
2022/10/14 15:18:18;;;;;;;19.20;17.30;;;;;;;15.68;100.00;100695.13;5282921;28;20024;-80
2022/10/14 15:20:50;;;;;;;22.55;20.38;;;;;;;15.63;100.00;100691.31;5283193;28;20024;-79
2022/10/14 15:23:54;;;;;;;49.00;44.13;;;;;;;15.70;100.00;100690.03;5283009;28;20028;-76
2022/10/14 15:26:32;;;;;;;26.65;23.98;;;;;;;15.70;100.00;100687.25;5280265;28;20033;-76
2022/10/14 15:29:06;;;;;;;22.30;20.20;;;;;;;15.65;100.00;100693.81;5268678;28;20028;-80
2022/10/14 15:31:39;;;;;;;21.50;19.50;;;;;;;15.66;100.00;100687.88;5291049;28;20028;-74
2022/10/14 15:34:16;;;;;;;23.00;20.67;;;;;;;15.69;100.00;100685.56;5283862;28;20032;-80
2022/10/14 15:36:48;;;;;;;22.52;19.95;;;;;;;15.76;100.00;100692.34;5283364;28;20020;-82
2022/10/14 15:39:21;;;;;;;24.60;22.20;;;;;;;15.76;100.00;100680.34;5282728;28;20067;-78
2022/10/14 15:41:52;;;;;;;22.15;20.13;;;;;;;15.77;100.00;100676.41;5282875;28;20026;-78
2022/10/14 15:44:23;;;;;;;21.60;19.55;;;;;;;15.73;100.00;100681.84;5282472;28;20033;-77
2022/10/14 15:49:49;;;;;;;22.30;20.25;;;;;;;15.83;100.00;100680.69;5284114;28;20040;-73
2022/10/14 15:52:20;;;;;;;24.50;22.20;;;;;;;15.81;100.00;100680.19;5284290;28;20024;-79
2022/10/14 15:54:52;;;;;;;23.27;21.08;;;;;;;15.80;100.00;100675.75;5284964;28;20044;-79
2022/10/14 15:57:27;;;;;;;23.40;21.10;;;;;;;15.76;100.00;100670.00;5285974;28;20081;-88
2022/10/14 15:59:58;;;;;;;22.80;20.63;;;;;;;15.75;100.00;100671.16;5282724;28;20041;-79
2022/10/14 16:02:32;;;;;;;20.98;18.77;;;;;;;15.72;100.00;100673.75;5292534;28;20479;-77
2022/10/14 16:05:06;;;;;;;20.33;18.42;;;;;;;15.68;100.00;100667.16;5283245;28;20115;-76
2022/10/14 16:07:44;;;;;;;22.95;20.85;;;;;;;15.64;100.00;100667.81;5279964;28;20047;-77
2022/10/14 16:10:21;;;;;;;22.90;20.67;;;;;;;15.60;100.00;100672.44;5282718;28;20476;-81
2022/10/14 16:12:52;;;;;;;23.70;21.40;;;;;;;15.57;100.00;100663.84;5282684;28;20032;-81
2022/10/14 16:15:32;;;;;;;25.35;22.88;;;;;;;15.51;100.00;100671.59;5286131;28;20475;-82
2022/10/14 16:18:05;;;;;;;24.33;22.02;;;;;;;15.49;100.00;100662.69;5278393;28;20183;-81
2022/10/14 16:20:36;;;;;;;25.75;23.25;;;;;;;15.46;100.00;100663.34;5277268;28;20089;-84
2022/10/14 16:23:13;;;;;;;25.63;23.25;;;;;;;15.45;100.00;100670.09;5286530;28;20024;-83
2022/10/14 16:25:48;;;;;;;24.35;21.85;;;;;;;15.42;100.00;100666.00;5279979;28;20021;-84
2022/10/14 16:28:20;;;;;;;24.05;21.73;;;;;;;15.38;100.00;100665.00;5273439;28;20029;-82
2022/10/14 16:30:51;;;;;;;26.10;23.67;;;;;;;15.42;100.00;100660.41;5269527;28;20029;-79
2022/10/14 16:33:23;;;;;;;27.00;24.40;;;;;;;15.36;100.00;100670.06;5263967;28;20025;-78
2022/10/14 16:35:55;;;;;;;27.75;25.08;;;;;;;15.29;100.00;100672.56;5265498;28;20013;-82
2022/10/14 16:38:27;;;;;;;23.63;21.17;;;;;;;15.25;100.00;100676.31;5273911;28;20033;-79
2022/10/14 16:41:00;;;;;;;21.98;19.77;;;;;;;15.22;100.00;100675.81;5265243;28;20434;-78
2022/10/14 16:43:31;;;;;;;27.23;24.35;;;;;;;15.21;100.00;100662.16;5282227;28;20448;-78
2022/10/14 16:46:04;;;;;;;23.77;21.38;;;;;;;15.23;100.00;100666.28;5286097;28;20063;-77
2022/10/14 16:48:36;;;;;;;22.20;19.90;;;;;;;15.27;100.00;100669.25;5286677;28;20021;-78
2022/10/14 16:51:07;;;;;;;22.58;20.38;;;;;;;15.22;100.00;100666.63;5285586;28;20104;-77
2022/10/14 16:53:47;;;;;;;23.42;20.75;;;;;;;15.18;100.00;100669.22;5266457;28;20021;-77
2022/10/14 16:59:13;;;;;;;24.05;21.60;;;;;;;15.19;100.00;100668.09;5286561;28;20033;-78
2022/10/14 17:01:44;;;;;;;26.38;23.58;;;;;;;15.13;100.00;100661.00;5286268;28;20055;-78
2022/10/14 17:04:19;;;;;;;24.85;21.60;;;;;;;15.17;100.00;100663.97;5285864;28;20375;-77
2022/10/14 17:06:51;;;;;;;24.80;22.20;;;;;;;15.12;100.00;100667.75;5286676;28;20062;-78
2022/10/14 17:09:22;;;;;;;26.92;24.17;;;;;;;15.11;100.00;100676.44;5285554;28;20033;-78
2022/10/14 17:11:54;;;;;;;24.17;21.70;;;;;;;15.08;100.00;100663.94;5285416;28;20029;-77
2022/10/14 17:14:26;;;;;;;23.35;20.85;;;;;;;15.13;100.00;100668.56;5287644;28;20112;-77
2022/10/14 17:16:59;;;;;;;23.45;21.05;;;;;;;15.11;100.00;100663.31;5288009;28;20095;-77
2022/10/14 17:19:30;;;;;;;22.38;20.13;;;;;;;15.05;100.00;100669.34;5285210;28;20032;-77
2022/10/14 17:22:02;;;;;;;22.80;20.48;;;;;;;15.11;100.00;100671.69;5286728;28;20475;-77
2022/10/14 17:24:33;;;;;;;20.42;18.45;;;;;;;15.07;100.00;100670.69;5285973;28;20073;-76
2022/10/14 17:27:04;;;;;;;24.88;22.33;;;;;;;15.06;100.00;100660.66;5285155;28;20024;-76
2022/10/14 17:29:36;;;;;;;20.20;18.08;;;;;;;15.04;100.00;100662.97;5285979;28;20531;-76
2022/10/14 17:32:07;;;;;;;23.45;21.13;;;;;;;15.02;100.00;100670.00;5284943;28;20120;-76
